Time;durP1;ratioP1;P1;durP2;ratioP2;P2;SDS_P1;SDS_P2;PMS_P1;PMS_P2;Temp;Humidity;BMP_temperature;BMP_pressure;BME280_temperature;BME280_humidity;BME280_pressure;Samples;Min_cycle;Max_cycle;Signal;HPM_P1;HPM_P2
2022/09/21 00:02:01;;;;;;;6.60;6.00;;;;;;;8.07;77.75;100174.95;213666;1276;139936;-66
2022/09/21 00:07:04;;;;;;;13.30;6.40;;;;;;;7.98;77.88;100174.16;214911;1276;140531;-68
2022/09/21 00:12:06;;;;;;;6.90;5.40;;;;;;;7.89;77.67;100172.30;213530;1276;141113;-65
2022/09/21 00:17:08;;;;;;;8.90;6.20;;;;;;;7.86;77.85;100174.17;213936;1276;140896;-65
2022/09/21 00:22:11;;;;;;;7.80;7.00;;;;;;;7.85;78.48;100170.67;213951;1276;140739;-67
2022/09/21 00:27:13;;;;;;;8.20;5.80;;;;;;;7.79;78.59;100179.16;212887;1276;141695;-67
2022/09/21 00:32:16;;;;;;;7.10;5.70;;;;;;;7.71;78.24;100187.77;212882;1276;143081;-66
2022/09/21 00:37:19;;;;;;;9.80;8.00;;;;;;;7.61;78.32;100186.41;212854;1276;142474;-67
2022/09/21 00:42:28;;;;;;;7.40;5.20;;;;;;;7.56;78.42;100189.75;214290;1276;141319;-66
2022/09/21 00:47:44;;;;;;;12.80;6.00;;;;;;;7.49;78.28;100189.21;213359;1276;141385;-64
2022/09/21 00:52:51;;;;;;;7.80;5.40;;;;;;;7.35;77.96;100188.05;212913;1276;140645;-65
2022/09/21 00:57:57;;;;;;;9.20;5.80;;;;;;;7.24;78.27;100189.56;213738;1276;139921;-66
2022/09/21 01:03:00;;;;;;;9.50;7.40;;;;;;;7.16;78.37;100191.00;214660;1276;140258;-67
2022/09/21 01:08:04;;;;;;;7.70;5.40;;;;;;;7.12;78.63;100197.84;213953;1276;142795;-66
2022/09/21 01:13:16;;;;;;;9.80;6.30;;;;;;;7.10;78.50;100198.98;214280;1276;140841;-67
2022/09/21 01:18:25;;;;;;;8.20;5.70;;;;;;;7.08;78.76;100199.84;214661;1276;141218;-66
2022/09/21 01:24:10;;;;;;;8.70;5.90;;;;;;;7.07;78.87;100206.52;214072;1276;139906;-66
2022/09/21 01:29:32;;;;;;;6.70;5.50;;;;;;;7.12;79.11;100207.44;214766;1276;141934;-67
2022/09/21 01:34:42;;;;;;;8.90;6.00;;;;;;;7.19;79.42;100204.55;215343;1276;140513;-67
2022/09/21 01:39:49;;;;;;;9.60;5.80;;;;;;;7.31;80.15;100204.13;215849;1276;141111;-67
2022/09/21 01:44:54;;;;;;;9.40;6.00;;;;;;;7.49;80.32;100205.45;215392;1277;140066;-66
2022/09/21 01:50:01;;;;;;;13.30;6.90;;;;;;;7.62;80.31;100210.73;215532;1276;141286;-67
2022/09/21 01:55:09;;;;;;;8.70;6.30;;;;;;;7.77;80.50;100211.21;215566;1276;141148;-66
2022/09/21 02:00:12;;;;;;;;;;;;;;;7.89;80.86;100209.30;212926;1277;140878;-66
2022/09/21 02:05:18;;;;;;;9.10;6.70;;;;;;;7.96;80.96;100213.69;215096;1277;127406;-66
2022/09/21 02:10:39;;;;;;;8.50;7.50;;;;;;;8.07;81.08;100212.90;215312;1276;141256;-66
2022/09/21 02:15:48;;;;;;;8.50;5.60;;;;;;;8.18;81.11;100217.48;213111;1276;140821;-66
2022/09/21 02:20:56;;;;;;;10.40;6.60;;;;;;;8.21;80.81;100220.33;213570;1276;139564;-65
2022/09/21 02:26:03;;;;;;;9.60;8.10;;;;;;;8.23;81.20;100219.23;213060;1277;140033;-66
2022/09/21 02:31:12;;;;;;;;;;;;;;;8.24;81.18;100215.00;214344;1277;141062;-66
2022/09/21 02:36:28;;;;;;;13.10;7.20;;;;;;;8.26;81.70;100216.46;213607;1276;128010;-64
2022/09/21 02:41:48;;;;;;;12.10;6.40;;;;;;;8.31;81.58;100221.11;214168;1276;140930;-64
2022/09/21 02:47:00;;;;;;;9.00;6.50;;;;;;;8.37;81.72;100226.27;214211;1276;140746;-65
2022/09/21 02:52:09;;;;;;;8.00;6.70;;;;;;;8.47;82.05;100233.21;213734;1276;140773;-66
2022/09/21 02:57:15;;;;;;;11.40;6.80;;;;;;;8.53;81.98;100232.29;213361;1277;141324;-66
2022/09/21 03:02:17;;;;;;;10.20;6.70;;;;;;;8.61;82.24;100234.20;212547;1276;140662;-67
2022/09/21 03:07:20;;;;;;;9.30;6.20;;;;;;;8.65;82.20;100236.37;213432;1276;140551;-67
2022/09/21 03:12:22;;;;;;;9.20;6.30;;;;;;;8.72;82.39;100240.15;213353;1277;140236;-66
2022/09/21 03:17:29;;;;;;;9.50;8.20;;;;;;;8.76;82.26;100240.14;213069;1276;141763;-67
2022/09/21 03:22:32;;;;;;;8.60;6.90;;;;;;;8.85;82.71;100240.92;214760;1276;162837;-66
2022/09/21 03:27:34;;;;;;;11.10;7.90;;;;;;;8.90;82.46;100245.66;213666;1277;141291;-67
2022/09/21 03:32:36;;;;;;;10.00;7.10;;;;;;;8.93;82.56;100250.16;215529;1276;140359;-67
2022/09/21 03:37:38;;;;;;;9.20;6.40;;;;;;;8.99;82.48;100253.45;215443;1276;142239;-66
2022/09/21 03:42:43;;;;;;;10.00;8.00;;;;;;;9.02;82.31;100254.45;215480;1276;141753;-66
2022/09/21 03:47:47;;;;;;;8.90;6.10;;;;;;;9.01;82.30;100258.92;215958;1276;142238;-67
2022/09/21 03:52:49;;;;;;;9.80;6.20;;;;;;;9.03;82.71;100263.98;214967;1276;141585;-66
2022/09/21 03:57:52;;;;;;;11.30;6.80;;;;;;;9.14;82.79;100263.45;215001;1276;142311;-66
2022/09/21 04:02:54;;;;;;;9.90;7.10;;;;;;;9.21;82.89;100266.51;213418;1276;141455;-68
2022/09/21 04:07:57;;;;;;;8.10;7.00;;;;;;;9.26;82.86;100267.48;214437;1276;141421;-66
2022/09/21 04:13:00;;;;;;;7.00;6.20;;;;;;;9.33;83.05;100268.59;214462;1276;141475;-71
2022/09/21 04:18:02;;;;;;;8.20;6.40;;;;;;;9.36;82.95;100279.61;213011;1277;143006;-67
2022/09/21 04:23:06;;;;;;;12.70;6.80;;;;;;;9.39;82.78;100281.16;213086;1276;143706;-67
2022/09/21 04:28:09;;;;;;;10.00;6.80;;;;;;;9.43;83.02;100278.44;213852;1276;162046;-66
2022/09/21 04:33:13;;;;;;;11.20;7.60;;;;;;;9.49;83.02;100287.93;213659;1276;141269;-66
2022/09/21 04:38:15;;;;;;;12.80;7.30;;;;;;;9.53;83.34;100295.06;213241;1276;142732;-68
2022/09/21 04:43:17;;;;;;;7.90;7.10;;;;;;;9.56;83.42;100291.61;214037;1276;141095;-68
2022/09/21 04:48:24;;;;;;;10.50;7.80;;;;;;;9.59;83.37;100293.84;214223;1276;141665;-68
2022/09/21 04:53:27;;;;;;;8.50;6.90;;;;;;;9.63;83.34;100294.97;214289;1276;140031;-67
2022/09/21 04:58:31;;;;;;;9.80;7.50;;;;;;;9.68;83.47;100296.94;214098;1276;141051;-67
2022/09/21 05:03:34;;;;;;;12.10;8.10;;;;;;;9.70;83.44;100300.48;213662;1276;141524;-67
2022/09/21 05:13:57;;;;;;;10.70;7.20;;;;;;;9.77;83.53;100309.92;215750;1276;159413;-68
2022/09/21 05:18:59;;;;;;;8.70;7.40;;;;;;;9.83;83.58;100315.38;215538;1277;140705;-67
2022/09/21 05:24:02;;;;;;;9.10;6.40;;;;;;;9.85;83.44;100311.31;214669;1276;141029;-67
2022/09/21 05:29:04;;;;;;;8.70;6.90;;;;;;;9.92;83.41;100315.29;215641;1276;141701;-67
2022/09/21 05:34:16;;;;;;;7.40;6.70;;;;;;;10.02;83.52;100317.55;215860;1276;141090;-67
2022/09/21 05:39:18;;;;;;;13.50;6.70;;;;;;;10.13;83.56;100322.11;215649;1276;140602;-68
2022/09/21 05:44:21;;;;;;;8.10;6.70;;;;;;;10.26;83.46;100326.65;214569;1276;140688;-67
2022/09/21 05:49:47;;;;;;;8.30;7.20;;;;;;;10.32;83.38;100330.02;213545;1276;140276;-66
2022/09/21 05:55:31;;;;;;;8.60;7.40;;;;;;;10.35;83.33;100332.93;214456;1277;140361;-69
2022/09/21 06:00:46;;;;;;;8.00;6.70;;;;;;;10.43;83.41;100330.83;213473;1275;140681;-68
2022/09/21 06:05:49;;;;;;;7.40;4.60;;;;;;;10.48;83.39;100333.74;212700;1276;141677;-65
2022/09/21 06:10:52;;;;;;;7.20;5.20;;;;;;;10.54;83.38;100334.47;214178;1276;235983;-67
2022/09/21 06:15:55;;;;;;;6.90;5.50;;;;;;;10.67;83.42;100332.38;213153;1277;140617;-67
2022/09/21 06:20:58;;;;;;;7.70;5.10;;;;;;;10.78;83.32;100335.20;214205;1276;140416;-67
2022/09/21 06:26:00;;;;;;;7.00;5.10;;;;;;;10.87;83.46;100342.09;213175;1274;140366;-69
2022/09/21 06:31:04;;;;;;;6.30;5.70;;;;;;;10.93;83.16;100340.02;214613;1275;140302;-68
2022/09/21 06:36:06;;;;;;;5.80;4.80;;;;;;;10.97;83.04;100344.33;214259;1276;141859;-67
2022/09/21 06:41:09;;;;;;;8.10;4.90;;;;;;;11.03;82.93;100348.47;213160;1276;141332;-68
2022/09/21 06:46:11;;;;;;;5.10;4.60;;;;;;;11.12;82.87;100350.77;214194;1277;141774;-68
2022/09/21 06:51:14;;;;;;;7.40;5.10;;;;;;;11.20;82.93;100349.96;213171;1276;143604;-68
2022/09/21 06:56:17;;;;;;;5.30;4.40;;;;;;;11.34;82.98;100354.15;213086;1276;141735;-74
2022/09/21 07:01:20;;;;;;;7.20;5.40;;;;;;;11.46;82.86;100357.44;213958;1275;142967;-67
2022/09/21 07:06:23;;;;;;;7.70;5.00;;;;;;;11.53;82.64;100357.73;214719;1276;140520;-68
2022/09/21 07:11:26;;;;;;;5.50;4.40;;;;;;;11.60;82.32;100363.75;214913;1276;142105;-66
2022/09/21 07:16:29;;;;;;;6.70;4.70;;;;;;;11.81;82.28;100368.21;214774;1276;141958;-67
2022/09/21 07:21:32;;;;;;;5.50;4.20;;;;;;;12.07;82.07;100367.98;215061;1276;141405;-67
2022/09/21 07:26:36;;;;;;;8.10;4.10;;;;;;;12.31;81.77;100374.48;214858;1276;140817;-71
2022/09/21 07:31:38;;;;;;;6.50;5.00;;;;;;;12.44;81.78;100377.20;215216;1277;139613;-69
2022/09/21 07:36:41;;;;;;;7.00;4.50;;;;;;;12.50;81.09;100383.23;215671;1276;141720;-70
2022/09/21 07:41:47;;;;;;;3.60;3.10;;;;;;;12.58;80.84;100384.72;215649;1276;140985;-71
2022/09/21 07:46:52;;;;;;;3.60;3.00;;;;;;;12.64;80.88;100386.27;214944;1276;140761;-67
2022/09/21 07:51:56;;;;;;;6.30;4.00;;;;;;;12.71;80.53;100384.67;215119;1276;140169;-68
2022/09/21 08:02:25;;;;;;;3.60;2.90;;;;;;;12.88;80.16;100381.98;213259;1276;141352;-66
2022/09/21 08:07:28;;;;;;;5.20;4.50;;;;;;;12.99;80.04;100386.83;214593;1276;140075;-68
2022/09/21 08:12:30;;;;;;;8.20;2.60;;;;;;;13.09;80.18;100386.44;213782;1276;139480;-71
2022/09/21 08:17:32;;;;;;;5.20;2.50;;;;;;;13.21;79.72;100385.52;214064;1276;142366;-68
2022/09/21 08:22:34;;;;;;;2.80;2.00;;;;;;;13.33;79.19;100392.73;213992;1276;141497;-65
2022/09/21 08:27:39;;;;;;;3.60;1.90;;;;;;;13.36;79.01;100393.23;213323;1276;221186;-65
2022/09/21 08:32:42;;;;;;;2.20;1.30;;;;;;;13.45;78.83;100391.27;213574;1276;144060;-67
2022/09/21 08:37:54;;;;;;;1.60;1.50;;;;;;;13.69;78.56;100389.59;212612;1276;142660;-67
2022/09/21 08:43:06;;;;;;;2.90;2.00;;;;;;;13.90;78.45;100394.31;212855;1276;140891;-67
2022/09/21 08:48:26;;;;;;;1.80;1.60;;;;;;;14.17;78.53;100394.14;212480;1276;140980;-68
2022/09/21 08:53:49;;;;;;;2.40;1.80;;;;;;;14.55;77.73;100392.34;214785;1275;140638;-68
2022/09/21 08:58:53;;;;;;;1.70;1.40;;;;;;;14.97;77.40;100385.95;214236;1276;163333;-69
2022/09/21 09:04:21;;;;;;;2.20;1.70;;;;;;;15.34;76.79;100387.58;215582;1276;139387;-68
2022/09/21 09:09:43;;;;;;;1.40;1.30;;;;;;;15.76;75.90;100387.02;212497;1276;140394;-70
2022/09/21 09:15:18;;;;;;;0.90;0.80;;;;;;;15.88;74.94;100382.95;215575;1276;140367;-68
2022/09/21 09:20:44;;;;;;;2.40;1.80;;;;;;;16.20;74.42;100379.11;215569;1274;141054;-67
2022/09/21 09:25:50;;;;;;;1.70;1.30;;;;;;;16.73;73.99;100376.20;215589;1276;140901;-67
2022/09/21 09:31:21;;;;;;;0.70;0.70;;;;;;;16.77;72.39;100372.25;215477;1276;139929;-67
2022/09/21 09:36:32;;;;;;;1.00;0.60;;;;;;;16.55;70.99;100373.84;214623;1276;141698;-67
2022/09/21 09:42:23;;;;;;;1.60;0.80;;;;;;;16.20;70.12;100372.05;215518;1275;140253;-69
2022/09/21 09:47:39;;;;;;;1.20;1.00;;;;;;;16.24;70.26;100367.30;214797;1275;140505;-67
2022/09/21 09:52:44;;;;;;;1.40;0.90;;;;;;;16.13;69.73;100375.02;214522;1276;142063;-68
2022/09/21 09:57:48;;;;;;;0.50;0.50;;;;;;;16.17;69.79;100373.64;214282;1274;973017;-68
2022/09/21 10:02:55;;;;;;;0.90;0.90;;;;;;;16.50;69.41;100374.92;214409;1276;140954;-67
2022/09/21 10:07:58;;;;;;;0.80;0.80;;;;;;;16.15;68.73;100374.81;213563;1276;141074;-68
2022/09/21 10:13:15;;;;;;;3.00;0.80;;;;;;;15.73;68.38;100379.85;214089;1276;144147;-68
2022/09/21 10:18:23;;;;;;;;;;;;;;;15.52;68.47;100381.48;213908;1274;141894;-68
2022/09/21 10:23:28;;;;;;;3.20;1.70;;;;;;;15.89;69.30;100370.48;214064;1276;128647;-67
2022/09/21 10:28:31;;;;;;;2.10;0.80;;;;;;;16.65;68.87;100372.25;212790;1276;141051;-67
2022/09/21 10:34:06;;;;;;;3.20;1.80;;;;;;;16.86;67.61;100380.84;213987;1276;140785;-67
2022/09/21 10:39:32;;;;;;;1.00;0.90;;;;;;;16.56;66.91;100377.19;213312;1276;140256;-68
2022/09/21 10:44:46;;;;;;;1.90;0.90;;;;;;;16.70;67.16;100368.41;213452;1276;139892;-67
2022/09/21 10:49:53;;;;;;;1.40;0.70;;;;;;;16.96;66.65;100369.71;213875;1276;143369;-68
2022/09/21 10:54:56;;;;;;;2.40;0.80;;;;;;;16.72;65.69;100378.17;213098;1276;143099;-67
2022/09/21 11:00:34;;;;;;;1.50;1.00;;;;;;;16.42;65.52;100374.71;213449;1276;141892;-67
2022/09/21 11:05:40;;;;;;;0.60;0.60;;;;;;;16.58;65.62;100365.30;213475;1276;141101;-67
2022/09/21 11:11:06;;;;;;;1.60;0.70;;;;;;;16.37;64.62;100370.91;214356;1276;140859;-66
2022/09/21 11:16:43;;;;;;;1.40;0.70;;;;;;;15.91;64.10;100377.33;214766;1276;140542;-67
2022/09/21 11:22:25;;;;;;;1.60;0.60;;;;;;;15.52;64.10;100383.95;214978;1276;140162;-70
2022/09/21 11:27:38;;;;;;;1.50;1.40;;;;;;;15.26;64.44;100380.51;215143;1276;142622;-68
2022/09/21 11:33:26;;;;;;;1.80;0.90;;;;;;;15.20;65.02;100381.71;215524;1276;140457;-67
2022/09/21 11:38:52;;;;;;;3.30;1.40;;;;;;;15.18;65.45;100377.45;215671;1276;141962;-68
2022/09/21 11:44:32;;;;;;;3.50;1.10;;;;;;;15.60;65.64;100366.40;215531;1276;140291;-68
2022/09/21 11:50:18;;;;;;;1.80;0.80;;;;;;;15.92;65.23;100362.39;214540;1275;140976;-69
2022/09/21 11:56:04;;;;;;;1.00;0.80;;;;;;;15.77;64.60;100368.54;213079;1275;139440;-68
2022/09/21 12:01:10;;;;;;;1.20;0.90;;;;;;;16.01;64.52;100361.99;214429;1276;140361;-68
2022/09/21 12:06:23;;;;;;;1.30;1.20;;;;;;;16.41;63.97;100355.27;213589;1276;140556;-67
2022/09/21 12:11:27;;;;;;;5.30;0.90;;;;;;;16.71;63.09;100352.34;212824;1276;142164;-67
2022/09/21 12:16:50;;;;;;;0.70;0.70;;;;;;;16.90;62.46;100349.59;212777;1276;141184;-67
2022/09/21 12:22:18;;;;;;;1.60;1.10;;;;;;;17.34;62.08;100341.86;213979;1276;141467;-68
2022/09/21 12:27:39;;;;;;;1.10;0.70;;;;;;;17.57;61.40;100338.48;213364;1276;152725;-68
2022/09/21 12:32:58;;;;;;;3.00;1.10;;;;;;;17.34;60.38;100346.50;213734;1276;141208;-69
2022/09/21 12:38:17;;;;;;;0.80;0.80;;;;;;;17.02;59.78;100353.25;212912;1276;141274;-67
2022/09/21 12:43:56;;;;;;;0.70;0.60;;;;;;;16.38;60.14;100355.85;214263;1276;140052;-68
2022/09/21 12:49:07;;;;;;;0.30;0.30;;;;;;;16.01;60.44;100359.73;215122;1276;140746;-69
2022/09/21 12:54:18;;;;;;;0.90;0.50;;;;;;;15.82;60.70;100364.51;213054;1276;140746;-68
2022/09/21 12:59:36;;;;;;;0.70;0.60;;;;;;;15.72;60.98;100370.09;214513;1278;140285;-69
2022/09/21 13:05:03;;;;;;;0.50;0.50;;;;;;;15.53;61.45;100372.25;213184;1276;140250;-69
2022/09/21 13:10:30;;;;;;;1.20;0.50;;;;;;;15.44;61.48;100365.73;213045;1276;139633;-69
2022/09/21 13:15:44;;;;;;;0.60;0.60;;;;;;;15.71;62.01;100360.89;214298;1276;140156;-69
2022/09/21 13:20:53;;;;;;;1.20;0.70;;;;;;;15.82;61.94;100360.05;213507;1275;140839;-68
2022/09/21 13:26:07;;;;;;;1.00;0.90;;;;;;;15.73;61.97;100363.17;215224;1276;140396;-67
2022/09/21 13:31:15;;;;;;;3.60;1.10;;;;;;;15.50;62.03;100357.70;215719;1275;141304;-67
2022/09/21 13:36:38;;;;;;;1.00;1.00;;;;;;;15.43;62.03;100353.14;215506;1276;141244;-68
2022/09/21 13:41:40;;;;;;;2.00;0.90;;;;;;;15.27;62.04;100356.17;215735;1276;141531;-68
2022/09/21 13:47:02;;;;;;;1.30;1.20;;;;;;;15.04;62.34;100355.45;215843;1276;140855;-69
2022/09/21 13:52:45;;;;;;;2.50;1.10;;;;;;;14.93;62.56;100361.18;213224;1276;140173;-68
2022/09/21 13:57:54;;;;;;;2.30;1.00;;;;;;;14.94;62.87;100363.98;214901;1276;139887;-68
2022/09/21 14:03:05;;;;;;;1.40;1.30;;;;;;;14.95;63.12;100362.38;215217;1276;141675;-68
2022/09/21 14:08:15;;;;;;;1.80;1.30;;;;;;;15.13;63.31;100360.15;212739;1276;143637;-68
2022/09/21 14:13:33;;;;;;;3.10;1.80;;;;;;;15.29;63.29;100359.21;214009;1276;141210;-68
2022/09/21 14:18:36;;;;;;;2.30;1.10;;;;;;;15.31;63.13;100358.70;213340;1275;141895;-66
2022/09/21 14:23:39;;;;;;;1.40;1.10;;;;;;;15.46;63.04;100354.67;213168;1276;142150;-67
2022/09/21 14:28:50;;;;;;;0.90;0.90;;;;;;;15.52;62.78;100349.91;213903;1276;141065;-69
2022/09/21 14:33:59;;;;;;;2.90;0.90;;;;;;;15.55;62.89;100347.76;213082;1276;140952;-66
2022/09/21 14:39:06;;;;;;;1.10;1.10;;;;;;;15.55;62.64;100356.27;213323;1276;140934;-65
2022/09/21 14:44:28;;;;;;;0.80;0.70;;;;;;;15.36;62.70;100359.88;213891;1276;234422;-67
2022/09/21 14:49:50;;;;;;;1.20;1.10;;;;;;;15.12;62.56;100366.52;213594;1276;140363;-65
2022/09/21 14:55:16;;;;;;;0.80;0.50;;;;;;;14.91;62.73;100361.31;212850;1276;140335;-67
2022/09/21 15:00:33;;;;;;;0.30;0.30;;;;;;;14.99;63.24;100368.98;213438;1276;141807;-65
2022/09/21 15:05:43;;;;;;;0.30;0.30;;;;;;;14.77;62.54;100371.95;213640;1276;141764;-66
2022/09/21 15:11:17;;;;;;;1.50;0.40;;;;;;;14.41;62.80;100371.34;213570;1276;141985;-67
2022/09/21 15:16:42;;;;;;;2.30;0.60;;;;;;;14.13;63.08;100368.45;215911;1276;141186;-69
2022/09/21 15:21:47;;;;;;;0.70;0.70;;;;;;;13.97;63.80;100368.67;215339;1276;141167;-68
2022/09/21 15:27:01;;;;;;;0.40;0.40;;;;;;;13.88;63.84;100369.77;215667;1276;142048;-72
2022/09/21 15:32:05;;;;;;;2.80;0.90;;;;;;;13.82;64.07;100369.83;215671;1276;140892;-69
2022/09/21 15:37:18;;;;;;;2.40;1.00;;;;;;;13.73;64.43;100372.35;214423;1276;140611;-67
2022/09/21 15:42:22;;;;;;;1.70;0.90;;;;;;;13.65;64.49;100372.63;214048;1276;140682;-70
2022/09/21 15:47:25;;;;;;;0.70;0.70;;;;;;;13.54;64.75;100370.39;214790;1276;141593;-68
2022/09/21 15:52:41;;;;;;;2.30;1.00;;;;;;;13.44;65.05;100373.04;215160;1276;140506;-69
2022/09/21 15:57:44;;;;;;;1.10;1.10;;;;;;;13.38;65.73;100366.33;213710;1276;142214;-71
2022/09/21 16:02:55;;;;;;;1.00;0.90;;;;;;;13.35;66.07;100370.11;214105;1276;142281;-69
2022/09/21 16:08:16;;;;;;;1.10;1.00;;;;;;;13.30;66.08;100376.66;213945;1276;140885;-69
2022/09/21 16:18:48;;;;;;;3.00;2.20;;;;;;;13.17;67.19;100380.98;213900;1276;140800;-71
2022/09/21 16:23:54;;;;;;;3.10;2.00;;;;;;;13.11;67.16;100380.14;214292;1276;140714;-67
2022/09/21 16:29:24;;;;;;;2.70;1.30;;;;;;;13.04;67.51;100381.88;214259;1276;140220;-70
2022/09/21 16:34:36;;;;;;;2.70;1.90;;;;;;;12.99;67.64;100380.54;214282;1276;140765;-65
2022/09/21 16:39:40;;;;;;;2.00;1.50;;;;;;;12.92;67.68;100389.84;214538;1276;140431;-72
2022/09/21 16:44:44;;;;;;;1.50;1.40;;;;;;;12.82;67.88;100389.13;214904;1276;140186;-72
2022/09/21 16:49:50;;;;;;;2.30;1.90;;;;;;;12.70;67.92;100395.02;213604;1276;141105;-67
2022/09/21 16:54:57;;;;;;;4.00;1.90;;;;;;;12.55;68.37;100401.61;213143;1276;141533;-69
2022/09/21 17:00:00;;;;;;;1.80;1.50;;;;;;;12.33;68.35;100407.71;213509;1277;160543;-65
2022/09/21 17:05:02;;;;;;;2.40;1.50;;;;;;;12.17;68.64;100407.90;212924;1276;141761;-67
2022/09/21 17:10:13;;;;;;;8.00;1.50;;;;;;;11.96;68.84;100411.58;213210;1276;141106;-67
2022/09/21 17:15:17;;;;;;;1.90;1.40;;;;;;;11.75;69.00;100413.67;214555;1276;140873;-67
2022/09/21 17:20:33;;;;;;;3.80;1.70;;;;;;;11.55;69.30;100412.73;215452;1276;140361;-67
2022/09/21 17:25:37;;;;;;;2.50;1.50;;;;;;;11.37;69.42;100417.51;214579;1276;140816;-66
2022/09/21 17:30:41;;;;;;;3.10;2.10;;;;;;;11.26;69.53;100421.35;215731;1276;140897;-67
2022/09/21 17:35:45;;;;;;;2.10;1.90;;;;;;;11.15;69.69;100424.29;215401;1277;140533;-67
2022/09/21 17:40:49;;;;;;;2.50;1.80;;;;;;;11.03;69.90;100433.06;215581;1276;141396;-68
2022/09/21 17:46:15;;;;;;;5.50;2.30;;;;;;;10.95;70.39;100442.56;215742;1276;140657;-67
2022/09/21 17:56:53;;;;;;;4.70;2.50;;;;;;;10.95;71.48;100462.47;213514;1276;140329;-66
2022/09/21 18:01:58;;;;;;;2.70;2.50;;;;;;;10.99;72.12;100463.25;213134;1277;141702;-66
2022/09/21 18:07:02;;;;;;;3.30;2.40;;;;;;;11.02;72.60;100466.84;214824;1276;141282;-67
2022/09/21 18:12:35;;;;;;;6.40;4.60;;;;;;;11.07;72.95;100467.17;214188;1276;140456;-66
2022/09/21 18:18:01;;;;;;;3.60;2.70;;;;;;;11.12;73.10;100468.16;213278;1277;141678;-67
2022/09/21 18:23:17;;;;;;;2.60;2.30;;;;;;;11.12;72.91;100470.30;213621;1277;141676;-66
2022/09/21 18:28:27;;;;;;;4.30;2.20;;;;;;;11.08;72.92;100472.54;213012;1277;150626;-66
2022/09/21 18:33:35;;;;;;;3.30;2.80;;;;;;;10.98;72.98;100475.27;214172;1277;140435;-65
2022/09/21 18:38:51;;;;;;;13.10;6.90;;;;;;;10.92;73.26;100477.52;213052;1277;139881;-70
2022/09/21 18:44:10;;;;;;;5.80;4.30;;;;;;;10.85;73.38;100476.45;212720;1277;140035;-69
2022/09/21 18:49:53;;;;;;;8.40;5.20;;;;;;;10.76;73.37;100479.10;212940;1278;141081;-69
2022/09/21 18:54:56;;;;;;;6.10;4.00;;;;;;;10.74;73.92;100477.11;214368;1277;140111;-67
2022/09/21 18:59:59;;;;;;;12.10;6.00;;;;;;;10.72;74.12;100472.08;215328;1277;140356;-70
2022/09/21 19:05:02;;;;;;;6.20;3.40;;;;;;;10.75;74.46;100475.46;213118;1277;142967;-68
2022/09/21 19:10:21;;;;;;;4.60;2.60;;;;;;;10.78;74.55;100472.90;213428;1277;140104;-70
2022/09/21 19:15:31;;;;;;;6.60;5.90;;;;;;;10.76;74.50;100471.52;215683;1276;141441;-70
2022/09/21 19:21:29;;;;;;;8.80;5.70;;;;;;;10.80;74.85;100474.36;215381;1277;141494;-71
2022/09/21 19:26:55;;;;;;;9.20;5.00;;;;;;;10.82;74.80;100470.03;215418;1276;140363;-69
2022/09/21 19:31:58;;;;;;;13.30;6.20;;;;;;;10.73;74.42;100468.42;215629;1276;141516;-70
2022/09/21 19:37:01;;;;;;;10.80;6.90;;;;;;;10.67;74.35;100469.84;215361;1276;140661;-69
2022/09/21 19:42:35;;;;;;;12.00;5.50;;;;;;;10.58;73.95;100470.27;214507;1276;141162;-70
2022/09/21 19:47:51;;;;;;;8.20;5.80;;;;;;;10.41;73.79;100469.52;215459;1276;139689;-69
2022/09/21 19:59:41;;;;;;;7.60;6.20;;;;;;;10.23;73.96;100471.65;214519;1276;139791;-67
2022/09/21 20:03:44;;;;;;;14.30;8.10;;;;;;;9.91;73.86;100479.75;214133;1276;140882;-66
2022/09/21 20:09:11;;;;;;;16.50;8.70;;;;;;;9.76;73.78;100478.10;213886;1276;142019;-65
2022/09/21 20:14:35;;;;;;;35.90;10.30;;;;;;;9.60;74.08;100481.07;213682;1276;139697;-65
2022/09/21 20:19:56;;;;;;;18.00;11.50;;;;;;;9.44;74.04;100480.80;213066;1276;141301;-67
2022/09/21 20:25:12;;;;;;;24.00;15.90;;;;;;;9.31;74.33;100478.85;213149;1276;141561;-66
2022/09/21 20:30:20;;;;;;;27.20;16.10;;;;;;;9.20;74.46;100474.33;213404;1276;141954;-66
2022/09/21 20:35:27;;;;;;;25.20;16.80;;;;;;;9.08;74.48;100477.18;212980;1277;142523;-65
2022/09/21 20:40:31;;;;;;;27.10;13.30;;;;;;;8.95;74.30;100480.54;213987;1276;141027;-68
2022/09/21 20:45:34;;;;;;;18.70;11.50;;;;;;;8.80;74.42;100480.32;213436;1276;141475;-67
2022/09/21 20:50:47;;;;;;;21.90;13.30;;;;;;;8.66;74.39;100480.99;213992;1276;142069;-67
2022/09/21 20:55:59;;;;;;;28.40;16.00;;;;;;;8.55;74.62;100480.87;214725;1276;142834;-66
2022/09/21 21:01:04;;;;;;;33.80;16.20;;;;;;;8.46;74.43;100477.23;214360;1276;142111;-64
2022/09/21 21:06:07;;;;;;;27.00;15.20;;;;;;;8.35;74.60;100473.80;214332;1276;140918;-64
2022/09/21 21:11:10;;;;;;;23.80;13.10;;;;;;;8.26;74.56;100476.63;215604;1276;139806;-68
2022/09/21 21:16:13;;;;;;;36.40;15.20;;;;;;;8.17;74.51;100473.59;215752;1276;141966;-68
2022/09/21 21:21:16;;;;;;;22.80;14.00;;;;;;;8.10;73.97;100480.11;215626;1276;141069;-68
2022/09/21 21:26:20;;;;;;;15.30;11.40;;;;;;;8.01;74.43;100471.78;214029;1276;141740;-66
2022/09/21 21:31:36;;;;;;;13.20;8.90;;;;;;;7.89;74.66;100470.00;214370;1276;140901;-64
2022/09/21 21:36:39;;;;;;;19.40;6.90;;;;;;;7.79;74.73;100470.33;215275;1276;141416;-66
2022/09/21 21:41:42;;;;;;;13.50;6.70;;;;;;;7.75;74.75;100471.61;214376;1276;140550;-65
2022/09/21 21:46:45;;;;;;;8.40;6.80;;;;;;;7.71;74.75;100470.49;214807;1276;140535;-68
2022/09/21 21:51:50;;;;;;;11.80;7.80;;;;;;;7.66;74.94;100469.36;214423;1276;140240;-65
2022/09/21 21:56:56;;;;;;;9.80;7.00;;;;;;;7.60;75.05;100469.65;213045;1276;1066833;-65
2022/09/21 22:02:01;;;;;;;12.00;7.00;;;;;;;7.53;75.39;100471.77;213516;1276;140783;-64
2022/09/21 22:07:04;;;;;;;6.90;5.80;;;;;;;7.48;75.62;100474.27;213825;1276;140145;-64
2022/09/21 22:12:09;;;;;;;11.90;6.60;;;;;;;7.45;75.73;100476.34;213917;1276;140603;-66
2022/09/21 22:17:11;;;;;;;9.90;6.30;;;;;;;7.44;75.53;100479.23;213291;1276;140767;-70
2022/09/21 22:22:13;;;;;;;8.60;6.30;;;;;;;7.35;75.88;100474.67;213404;1275;139508;-68
2022/09/21 22:27:17;;;;;;;8.50;5.40;;;;;;;7.28;75.51;100473.97;213231;1276;142012;-65
2022/09/21 22:32:21;;;;;;;8.70;6.30;;;;;;;7.20;75.71;100471.71;212781;1275;141300;-67
2022/09/21 22:37:24;;;;;;;11.20;6.70;;;;;;;7.11;75.67;100467.89;214541;1276;140441;-67
2022/09/21 22:42:27;;;;;;;18.10;8.10;;;;;;;7.04;76.19;100470.30;213639;1276;140124;-66
2022/09/21 22:47:30;;;;;;;18.50;10.70;;;;;;;6.99;76.16;100468.61;213238;1276;140914;-66
2022/09/21 22:52:33;;;;;;;18.50;14.00;;;;;;;6.99;76.26;100472.56;213928;1276;141605;-67
2022/09/21 22:57:36;;;;;;;19.40;9.00;;;;;;;6.99;76.46;100470.53;213563;1276;142887;-66
2022/09/21 23:02:39;;;;;;;20.10;10.20;;;;;;;6.96;76.04;100461.69;213968;1276;141441;-66
2022/09/21 23:07:41;;;;;;;19.80;10.70;;;;;;;6.89;76.49;100457.39;215653;1276;141141;-66
2022/09/21 23:12:48;;;;;;;17.40;12.00;;;;;;;6.84;76.51;100460.16;215678;1275;141385;-65
2022/09/21 23:17:52;;;;;;;20.10;10.60;;;;;;;6.83;76.38;100460.23;214188;1276;141876;-65
2022/09/21 23:22:55;;;;;;;20.10;10.40;;;;;;;6.71;76.21;100458.68;215020;1276;141695;-65
2022/09/21 23:27:59;;;;;;;21.10;11.60;;;;;;;6.61;76.15;100462.48;215898;1276;140965;-66
2022/09/21 23:33:02;;;;;;;18.10;10.20;;;;;;;6.48;75.84;100456.65;214787;1276;140957;-65
2022/09/21 23:38:05;;;;;;;12.70;8.00;;;;;;;6.37;76.27;100457.47;214830;1276;140159;-66
2022/09/21 23:43:09;;;;;;;11.30;7.70;;;;;;;6.35;76.63;100459.73;214497;1276;141148;-66
2022/09/21 23:48:12;;;;;;;15.80;7.90;;;;;;;6.31;76.09;100459.72;214170;1276;141041;-66
2022/09/21 23:53:15;;;;;;;12.30;6.40;;;;;;;6.19;75.98;100455.27;214269;1275;142056;-66
2022/09/21 23:58:18;;;;;;;11.40;6.50;;;;;;;6.06;76.24;100449.42;213267;1276;139714;-65
